AXB2782 VECC-VOPB
Flight info
| Callsign | AXB2782 |
|---|---|
| Flight time | 1h 49m |
| Altitude | 27000 |
| Route | DCT ATVEG Z14 DOPID W112 KIBUD/N0466F330 |
| Aircraft | A320/M-SDE3FGHIRWY/LB1 |
Departure
| Time | 2026-05-04 20:17 |
|---|---|
| Airport | Netaji Subhash Chandra Bose International Airport (VECC) |
Arrival
| Time | 2026-05-04 22:06 |
|---|---|
| Airport | Veer Savarkar International Airport / INS Utkrosh (VOPB) |
| Time | Latitude | Longitude | Altitude | Speed | Heading |
|---|---|---|---|---|---|
| 2026-05-04 19:59 | 22.64155 | 88.44045 | 28 ft | 0 kts | 277° |
| 2026-05-04 20:04 | 22.64155 | 88.44048 | 28 ft | 2 kts | 277° |
| 2026-05-04 20:04 | 22.64153 | 88.44064 | 28 ft | 2 kts | 277° |
| 2026-05-04 20:04 | 22.64151 | 88.44080 | 28 ft | 2 kts | 277° |
| 2026-05-04 20:04 | 22.64150 | 88.44095 | 28 ft | 2 kts | 277° |
| 2026-05-04 20:05 | 22.64148 | 88.44111 | 28 ft | 2 kts | 277° |
| 2026-05-04 20:05 | 22.64143 | 88.44127 | 28 ft | 2 kts | 329° |
| 2026-05-04 20:05 | 22.64129 | 88.44133 | 28 ft | 2 kts | 359° |
| 2026-05-04 20:05 | 22.64114 | 88.44134 | 28 ft | 2 kts | 5° |
| 2026-05-04 20:06 | 22.64100 | 88.44132 | 28 ft | 2 kts | 6° |
| 2026-05-04 20:06 | 22.64085 | 88.44130 | 28 ft | 2 kts | 8° |
| 2026-05-04 20:06 | 22.64070 | 88.44128 | 28 ft | 2 kts | 8° |
| 2026-05-04 20:06 | 22.64055 | 88.44126 | 28 ft | 2 kts | 8° |
| 2026-05-04 20:07 | 22.64040 | 88.44124 | 28 ft | 2 kts | 21° |
| 2026-05-04 20:07 | 22.64027 | 88.44116 | 28 ft | 2 kts | 52° |
| 2026-05-04 20:07 | 22.64018 | 88.44103 | 28 ft | 2 kts | 63° |
| 2026-05-04 20:07 | 22.64013 | 88.44093 | 28 ft | 0 kts | 64° |
| 2026-05-04 20:12 | 22.64014 | 88.44095 | 28 ft | 1 kts | 64° |
| 2026-05-04 20:12 | 22.64018 | 88.44138 | 28 ft | 7 kts | 94° |
| 2026-05-04 20:12 | 22.64015 | 88.44167 | 28 ft | 4 kts | 99° |
| 2026-05-04 20:13 | 22.64012 | 88.44184 | 28 ft | 2 kts | 99° |
| 2026-05-04 20:13 | 22.64005 | 88.44237 | 28 ft | 12 kts | 98° |
| 2026-05-04 20:13 | 22.64056 | 88.44298 | 28 ft | 12 kts | 3° |
| 2026-05-04 20:13 | 22.64129 | 88.44292 | 28 ft | 12 kts | 356° |
| 2026-05-04 20:14 | 22.64175 | 88.44351 | 28 ft | 10 kts | 79° |
| 2026-05-04 20:14 | 22.64199 | 88.44441 | 29 ft | 12 kts | 45° |
| 2026-05-04 20:14 | 22.64288 | 88.44441 | 29 ft | 9 kts | 352° |
| 2026-05-04 20:14 | 22.64329 | 88.44442 | 29 ft | 0 kts | 4° |
| 2026-05-04 20:16 | 22.64480 | 88.44455 | 28 ft | 55 kts | 5° |
| 2026-05-04 20:16 | 22.65060 | 88.44526 | 28 ft | 112 kts | 6° |
| 2026-05-04 20:16 | 22.65987 | 88.44635 | 132 ft | 148 kts | 4° |
| 2026-05-04 20:17 | 22.67039 | 88.44790 | 717 ft | 155 kts | 5° |
| 2026-05-04 20:17 | 22.68119 | 88.44964 | 1339 ft | 161 kts | 20° |
| 2026-05-04 20:17 | 22.68910 | 88.45789 | 1849 ft | 163 kts | 80° |
| 2026-05-04 20:17 | 22.69056 | 88.47080 | 2113 ft | 186 kts | 85° |
| 2026-05-04 20:18 | 22.69362 | 88.48534 | 2376 ft | 210 kts | 76° |
| 2026-05-04 20:18 | 22.69821 | 88.50125 | 2653 ft | 231 kts | 74° |
| 2026-05-04 20:18 | 22.70351 | 88.51869 | 2949 ft | 256 kts | 73° |
| 2026-05-04 20:18 | 22.70928 | 88.53768 | 3479 ft | 271 kts | 73° |
| 2026-05-04 20:19 | 22.71514 | 88.55726 | 4258 ft | 275 kts | 74° |
| 2026-05-04 20:19 | 22.72101 | 88.57717 | 5092 ft | 278 kts | 74° |
| 2026-05-04 20:19 | 22.72683 | 88.59727 | 5897 ft | 281 kts | 74° |
| 2026-05-04 20:19 | 22.73267 | 88.61759 | 6604 ft | 285 kts | 74° |
| 2026-05-04 20:20 | 22.73854 | 88.63820 | 6845 ft | 287 kts | 74° |
| 2026-05-04 20:20 | 22.74439 | 88.65883 | 6917 ft | 286 kts | 74° |
| 2026-05-04 20:20 | 22.74868 | 88.67980 | 6925 ft | 284 kts | 89° |
| 2026-05-04 20:20 | 22.74596 | 88.70074 | 6927 ft | 281 kts | 111° |
| 2026-05-04 20:21 | 22.73625 | 88.71889 | 6919 ft | 279 kts | 133° |
| 2026-05-04 20:21 | 22.72126 | 88.73190 | 6925 ft | 276 kts | 150° |
| 2026-05-04 20:21 | 22.68831 | 88.75350 | 6918 ft | 277 kts | 149° |
| 2026-05-04 20:22 | 22.67184 | 88.76435 | 6920 ft | 277 kts | 149° |
| 2026-05-04 20:22 | 22.65537 | 88.77517 | 6916 ft | 277 kts | 149° |
| 2026-05-04 20:22 | 22.63891 | 88.78599 | 6917 ft | 277 kts | 149° |
| 2026-05-04 20:22 | 22.62244 | 88.79682 | 6912 ft | 277 kts | 149° |
| 2026-05-04 20:23 | 22.60599 | 88.80766 | 6906 ft | 277 kts | 149° |
| 2026-05-04 20:23 | 22.58951 | 88.81851 | 6905 ft | 277 kts | 149° |
| 2026-05-04 20:23 | 22.57306 | 88.82933 | 6906 ft | 277 kts | 149° |
| 2026-05-04 20:23 | 22.55662 | 88.84013 | 6901 ft | 277 kts | 149° |
| 2026-05-04 20:24 | 22.54019 | 88.85094 | 6902 ft | 277 kts | 149° |
| 2026-05-04 20:24 | 22.52371 | 88.86177 | 6902 ft | 276 kts | 149° |
| 2026-05-04 20:24 | 22.50731 | 88.87255 | 6909 ft | 277 kts | 149° |
| 2026-05-04 20:24 | 22.49083 | 88.88281 | 6901 ft | 276 kts | 156° |
| 2026-05-04 20:25 | 22.47265 | 88.89016 | 7306 ft | 281 kts | 161° |
| 2026-05-04 20:25 | 22.45425 | 88.89731 | 8121 ft | 282 kts | 160° |
| 2026-05-04 20:25 | 22.43546 | 88.90465 | 8884 ft | 285 kts | 160° |
| 2026-05-04 20:25 | 22.41668 | 88.91200 | 9611 ft | 289 kts | 160° |
| 2026-05-04 20:26 | 22.39785 | 88.91938 | 10207 ft | 297 kts | 160° |
| 2026-05-04 20:26 | 22.37764 | 88.92727 | 10387 ft | 320 kts | 161° |
| 2026-05-04 20:26 | 22.35592 | 88.93572 | 10527 ft | 343 kts | 161° |
| 2026-05-04 20:26 | 22.33303 | 88.94464 | 10888 ft | 354 kts | 161° |
| 2026-05-04 20:27 | 22.30972 | 88.95373 | 11270 ft | 358 kts | 161° |
| 2026-05-04 20:27 | 22.28628 | 88.96290 | 11525 ft | 360 kts | 161° |
| 2026-05-04 20:27 | 22.26264 | 88.97213 | 11789 ft | 361 kts | 161° |
| 2026-05-04 20:27 | 22.23896 | 88.98137 | 12073 ft | 363 kts | 161° |
| 2026-05-04 20:28 | 22.21516 | 88.99066 | 12332 ft | 364 kts | 161° |
| 2026-05-04 20:28 | 22.19115 | 88.99961 | 12605 ft | 366 kts | 166° |
| 2026-05-04 20:28 | 22.16601 | 89.00428 | 12976 ft | 369 kts | 178° |
| 2026-05-04 20:28 | 22.14034 | 89.00428 | 13660 ft | 370 kts | 182° |
| 2026-05-04 20:29 | 22.11450 | 89.00383 | 14213 ft | 373 kts | 182° |
| 2026-05-04 20:29 | 22.08845 | 89.00347 | 14764 ft | 376 kts | 182° |
| 2026-05-04 20:29 | 22.06216 | 89.00314 | 15281 ft | 379 kts | 182° |
| 2026-05-04 20:29 | 22.03569 | 89.00279 | 15801 ft | 382 kts | 183° |
| 2026-05-04 20:30 | 22.00892 | 89.00242 | 16313 ft | 385 kts | 183° |
| 2026-05-04 20:30 | 21.98206 | 89.00203 | 16838 ft | 388 kts | 183° |
| 2026-05-04 20:30 | 21.95490 | 89.00158 | 17335 ft | 391 kts | 183° |
| 2026-05-04 20:30 | 21.92759 | 89.00110 | 17846 ft | 394 kts | 184° |
| 2026-05-04 20:31 | 21.90003 | 89.00062 | 18308 ft | 397 kts | 184° |
| 2026-05-04 20:31 | 21.87230 | 89.00016 | 18727 ft | 400 kts | 184° |
| 2026-05-04 20:31 | 21.84443 | 88.99972 | 19156 ft | 402 kts | 184° |
| 2026-05-04 20:31 | 21.81642 | 88.99930 | 19586 ft | 404 kts | 184° |
| 2026-05-04 20:32 | 21.78828 | 88.99887 | 20022 ft | 405 kts | 184° |
| 2026-05-04 20:32 | 21.76003 | 88.99842 | 20439 ft | 407 kts | 184° |
| 2026-05-04 20:32 | 21.73158 | 88.99795 | 20846 ft | 410 kts | 184° |
| 2026-05-04 20:32 | 21.70304 | 88.99749 | 21247 ft | 412 kts | 184° |
| 2026-05-04 20:33 | 21.67468 | 88.99702 | 21639 ft | 414 kts | 184° |
| 2026-05-04 20:33 | 21.64583 | 88.99653 | 22034 ft | 416 kts | 184° |
| 2026-05-04 20:33 | 21.61683 | 88.99605 | 22422 ft | 418 kts | 184° |
| 2026-05-04 20:33 | 21.58763 | 88.99798 | 22790 ft | 425 kts | 175° |
| 2026-05-04 20:34 | 21.55870 | 89.00539 | 23150 ft | 431 kts | 167° |
| 2026-05-04 20:34 | 21.52988 | 89.01453 | 23494 ft | 433 kts | 168° |
| 2026-05-04 20:34 | 21.50089 | 89.02362 | 23790 ft | 435 kts | 168° |
| 2026-05-04 20:34 | 21.47172 | 89.03269 | 24080 ft | 437 kts | 168° |
| 2026-05-04 20:35 | 21.44251 | 89.04175 | 24368 ft | 439 kts | 168° |
| 2026-05-04 20:35 | 21.41313 | 89.05084 | 24653 ft | 440 kts | 168° |
| 2026-05-04 20:35 | 21.38362 | 89.05997 | 24929 ft | 442 kts | 168° |
| 2026-05-04 20:35 | 21.35398 | 89.06915 | 25207 ft | 444 kts | 168° |
| 2026-05-04 20:36 | 21.32423 | 89.07837 | 25473 ft | 446 kts | 168° |
| 2026-05-04 20:36 | 21.29435 | 89.08765 | 25741 ft | 448 kts | 168° |
| 2026-05-04 20:36 | 21.26435 | 89.09697 | 26013 ft | 450 kts | 168° |
| 2026-05-04 20:36 | 21.23421 | 89.10632 | 26290 ft | 452 kts | 168° |
| 2026-05-04 20:37 | 21.20395 | 89.11571 | 26553 ft | 454 kts | 168° |
| 2026-05-04 20:37 | 21.17350 | 89.12516 | 26792 ft | 455 kts | 167° |
| 2026-05-04 20:37 | 21.14307 | 89.13461 | 26864 ft | 455 kts | 167° |
| 2026-05-04 20:37 | 21.11259 | 89.14406 | 26877 ft | 455 kts | 168° |
| 2026-05-04 20:38 | 21.08219 | 89.15346 | 26876 ft | 455 kts | 167° |
| 2026-05-04 20:38 | 21.05174 | 89.16289 | 26873 ft | 455 kts | 167° |
| 2026-05-04 20:38 | 21.02131 | 89.17232 | 26876 ft | 455 kts | 167° |
| 2026-05-04 20:38 | 20.99092 | 89.18175 | 26882 ft | 455 kts | 167° |
| 2026-05-04 20:39 | 20.96048 | 89.19118 | 26873 ft | 455 kts | 167° |
| 2026-05-04 20:39 | 20.93006 | 89.20056 | 26880 ft | 455 kts | 167° |
| 2026-05-04 20:39 | 20.89968 | 89.21032 | 26881 ft | 456 kts | 166° |
| 2026-05-04 20:39 | 20.86957 | 89.22126 | 26877 ft | 457 kts | 164° |
| 2026-05-04 20:40 | 20.83966 | 89.23310 | 26879 ft | 458 kts | 162° |
| 2026-05-04 20:40 | 20.80991 | 89.24536 | 26879 ft | 458 kts | 162° |
| 2026-05-04 20:40 | 20.78056 | 89.25749 | 26878 ft | 458 kts | 162° |
| 2026-05-04 20:40 | 20.75080 | 89.26958 | 26879 ft | 458 kts | 163° |
| 2026-05-04 20:41 | 20.72086 | 89.28148 | 26881 ft | 458 kts | 163° |
| 2026-05-04 20:41 | 20.69101 | 89.29316 | 26884 ft | 458 kts | 163° |
| 2026-05-04 20:41 | 20.66106 | 89.30477 | 26883 ft | 458 kts | 163° |
| 2026-05-04 20:41 | 20.63102 | 89.31632 | 26877 ft | 458 kts | 163° |
| 2026-05-04 20:42 | 20.60111 | 89.32785 | 26875 ft | 458 kts | 163° |
| 2026-05-04 20:42 | 20.57213 | 89.33906 | 26880 ft | 458 kts | 163° |
| 2026-05-04 20:42 | 20.54223 | 89.35070 | 26881 ft | 458 kts | 163° |
| 2026-05-04 20:42 | 20.51220 | 89.36245 | 26879 ft | 459 kts | 163° |
| 2026-05-04 20:43 | 20.48224 | 89.37417 | 26881 ft | 459 kts | 163° |
| 2026-05-04 20:43 | 20.45225 | 89.38585 | 26884 ft | 459 kts | 163° |
| 2026-05-04 20:43 | 20.42231 | 89.39744 | 26886 ft | 459 kts | 163° |
| 2026-05-04 20:43 | 20.39223 | 89.40908 | 26883 ft | 459 kts | 163° |
| 2026-05-04 20:44 | 20.36227 | 89.42068 | 26878 ft | 459 kts | 163° |
| 2026-05-04 20:44 | 20.33225 | 89.43234 | 26887 ft | 459 kts | 163° |
| 2026-05-04 20:44 | 20.30223 | 89.44402 | 26876 ft | 459 kts | 163° |
| 2026-05-04 20:44 | 20.27221 | 89.45569 | 26884 ft | 459 kts | 163° |
| 2026-05-04 20:45 | 20.24216 | 89.46733 | 26888 ft | 460 kts | 163° |
| 2026-05-04 20:45 | 20.21209 | 89.47895 | 26879 ft | 460 kts | 163° |
| 2026-05-04 20:45 | 20.18202 | 89.49055 | 26883 ft | 460 kts | 163° |
| 2026-05-04 20:45 | 20.15193 | 89.50213 | 26878 ft | 460 kts | 163° |
| 2026-05-04 20:46 | 20.12185 | 89.51375 | 26888 ft | 460 kts | 163° |
| 2026-05-04 20:46 | 20.09176 | 89.52542 | 26885 ft | 460 kts | 163° |
| 2026-05-04 20:46 | 20.06168 | 89.53710 | 26875 ft | 460 kts | 163° |
| 2026-05-04 20:46 | 20.03157 | 89.54874 | 26870 ft | 460 kts | 163° |
| 2026-05-04 20:47 | 20.00149 | 89.56035 | 26879 ft | 460 kts | 163° |
| 2026-05-04 20:47 | 19.97137 | 89.57199 | 26883 ft | 461 kts | 163° |
| 2026-05-04 20:47 | 19.94125 | 89.58360 | 26883 ft | 460 kts | 163° |
| 2026-05-04 20:47 | 19.91113 | 89.59524 | 26881 ft | 461 kts | 163° |
| 2026-05-04 20:48 | 19.88100 | 89.60687 | 26882 ft | 461 kts | 163° |
| 2026-05-04 20:48 | 19.85087 | 89.61849 | 26881 ft | 461 kts | 163° |
| 2026-05-04 20:48 | 19.82072 | 89.63011 | 26881 ft | 461 kts | 163° |
| 2026-05-04 20:48 | 19.79057 | 89.64168 | 26883 ft | 461 kts | 163° |
| 2026-05-04 20:49 | 19.76043 | 89.65326 | 26881 ft | 461 kts | 163° |
| 2026-05-04 20:49 | 19.73029 | 89.66487 | 26881 ft | 461 kts | 163° |
| 2026-05-04 20:49 | 19.70017 | 89.67651 | 26883 ft | 461 kts | 163° |
| 2026-05-04 20:49 | 19.67004 | 89.68814 | 26881 ft | 461 kts | 163° |
| 2026-05-04 20:50 | 19.63991 | 89.69975 | 26881 ft | 461 kts | 163° |
| 2026-05-04 20:50 | 19.60978 | 89.71133 | 26882 ft | 461 kts | 163° |
| 2026-05-04 20:50 | 19.58004 | 89.72275 | 26881 ft | 461 kts | 163° |
| 2026-05-04 20:50 | 19.54991 | 89.73430 | 26881 ft | 460 kts | 163° |
| 2026-05-04 20:51 | 19.51978 | 89.74586 | 26881 ft | 461 kts | 163° |
| 2026-05-04 20:51 | 19.48964 | 89.75745 | 26878 ft | 461 kts | 163° |
| 2026-05-04 20:51 | 19.45945 | 89.76908 | 26880 ft | 461 kts | 163° |
| 2026-05-04 20:51 | 19.42938 | 89.78062 | 26875 ft | 461 kts | 163° |
| 2026-05-04 20:52 | 19.39917 | 89.79218 | 26875 ft | 461 kts | 163° |
| 2026-05-04 20:52 | 19.36909 | 89.80370 | 26876 ft | 461 kts | 163° |
| 2026-05-04 20:52 | 19.33894 | 89.81524 | 26878 ft | 461 kts | 163° |
| 2026-05-04 20:52 | 19.30879 | 89.82676 | 26875 ft | 461 kts | 163° |
| 2026-05-04 20:53 | 19.27856 | 89.83829 | 26877 ft | 461 kts | 163° |
| 2026-05-04 20:53 | 19.24847 | 89.84976 | 26877 ft | 461 kts | 163° |
| 2026-05-04 20:53 | 19.21825 | 89.86128 | 26875 ft | 461 kts | 163° |
| 2026-05-04 20:53 | 19.18810 | 89.87280 | 26874 ft | 461 kts | 163° |
| 2026-05-04 20:54 | 19.15796 | 89.88430 | 26875 ft | 461 kts | 163° |
| 2026-05-04 20:54 | 19.12782 | 89.89581 | 26875 ft | 460 kts | 163° |
| 2026-05-04 20:54 | 19.09767 | 89.90729 | 26875 ft | 461 kts | 163° |
| 2026-05-04 20:54 | 19.06751 | 89.91877 | 26876 ft | 461 kts | 163° |
| 2026-05-04 20:55 | 19.04752 | 89.92638 | 26875 ft | 461 kts | 163° |
| 2026-05-04 20:55 | 19.01738 | 89.93788 | 26876 ft | 461 kts | 163° |
| 2026-05-04 20:55 | 18.98724 | 89.94938 | 26876 ft | 460 kts | 163° |
| 2026-05-04 20:55 | 18.94734 | 89.96459 | 26875 ft | 460 kts | 163° |
| 2026-05-04 20:56 | 18.91721 | 89.97611 | 26876 ft | 460 kts | 163° |
| 2026-05-04 20:56 | 18.89683 | 89.98388 | 26876 ft | 460 kts | 163° |
| 2026-05-04 20:56 | 18.86676 | 89.99532 | 26876 ft | 460 kts | 163° |
| 2026-05-04 20:56 | 18.83656 | 90.00679 | 26876 ft | 460 kts | 163° |
| 2026-05-04 20:57 | 18.80642 | 90.01820 | 26875 ft | 460 kts | 163° |
| 2026-05-04 20:57 | 18.77629 | 90.02963 | 26877 ft | 460 kts | 163° |
| 2026-05-04 20:57 | 18.74624 | 90.04108 | 26874 ft | 460 kts | 163° |
| 2026-05-04 20:57 | 18.71605 | 90.05260 | 26874 ft | 460 kts | 163° |
| 2026-05-04 20:58 | 18.68593 | 90.06408 | 26875 ft | 460 kts | 163° |
| 2026-05-04 20:58 | 18.65580 | 90.07555 | 26872 ft | 460 kts | 163° |
| 2026-05-04 20:58 | 18.62573 | 90.08697 | 26872 ft | 460 kts | 163° |
| 2026-05-04 20:58 | 18.59559 | 90.09839 | 26875 ft | 460 kts | 163° |
| 2026-05-04 20:59 | 18.56544 | 90.10977 | 26875 ft | 460 kts | 163° |
| 2026-05-04 20:59 | 18.53529 | 90.12114 | 26874 ft | 460 kts | 163° |
| 2026-05-04 20:59 | 18.50515 | 90.13257 | 26875 ft | 460 kts | 163° |
| 2026-05-04 20:59 | 18.47535 | 90.14387 | 26873 ft | 460 kts | 163° |
| 2026-05-04 21:00 | 18.44481 | 90.15546 | 26874 ft | 460 kts | 163° |
| 2026-05-04 21:00 | 18.41507 | 90.16672 | 26874 ft | 460 kts | 163° |
| 2026-05-04 21:00 | 18.38499 | 90.17809 | 26874 ft | 460 kts | 163° |
| 2026-05-04 21:00 | 18.35476 | 90.18950 | 26873 ft | 460 kts | 163° |
| 2026-05-04 21:01 | 18.32460 | 90.20089 | 26873 ft | 461 kts | 163° |
| 2026-05-04 21:01 | 18.29450 | 90.21226 | 26873 ft | 461 kts | 163° |
| 2026-05-04 21:01 | 18.26433 | 90.22366 | 26873 ft | 461 kts | 163° |
| 2026-05-04 21:01 | 18.23415 | 90.23503 | 26873 ft | 461 kts | 163° |
| 2026-05-04 21:02 | 18.20397 | 90.24639 | 26875 ft | 461 kts | 163° |
| 2026-05-04 21:02 | 18.17372 | 90.25780 | 26874 ft | 461 kts | 163° |
| 2026-05-04 21:02 | 18.14354 | 90.26921 | 26874 ft | 461 kts | 163° |
| 2026-05-04 21:02 | 18.11337 | 90.28060 | 26872 ft | 461 kts | 163° |
| 2026-05-04 21:03 | 18.08318 | 90.29200 | 26874 ft | 461 kts | 163° |
| 2026-05-04 21:03 | 18.05305 | 90.30335 | 26873 ft | 461 kts | 163° |
| 2026-05-04 21:03 | 18.02279 | 90.31474 | 26874 ft | 461 kts | 163° |
| 2026-05-04 21:03 | 17.99266 | 90.32609 | 26874 ft | 461 kts | 163° |
| 2026-05-04 21:04 | 17.96244 | 90.33744 | 26875 ft | 461 kts | 163° |
| 2026-05-04 21:04 | 17.93222 | 90.34878 | 26875 ft | 461 kts | 163° |
| 2026-05-04 21:04 | 17.90200 | 90.36013 | 26874 ft | 461 kts | 163° |
| 2026-05-04 21:04 | 17.87178 | 90.37147 | 26875 ft | 461 kts | 163° |
| 2026-05-04 21:05 | 17.84155 | 90.38283 | 26876 ft | 461 kts | 163° |
| 2026-05-04 21:05 | 17.81135 | 90.39419 | 26875 ft | 462 kts | 163° |
| 2026-05-04 21:05 | 17.78111 | 90.40556 | 26877 ft | 462 kts | 163° |
| 2026-05-04 21:05 | 17.75087 | 90.41694 | 26874 ft | 462 kts | 162° |
| 2026-05-04 21:06 | 17.72062 | 90.42832 | 26874 ft | 462 kts | 163° |
| 2026-05-04 21:06 | 17.69030 | 90.43970 | 26873 ft | 462 kts | 163° |
| 2026-05-04 21:06 | 17.66003 | 90.45103 | 26874 ft | 462 kts | 163° |
| 2026-05-04 21:06 | 17.62976 | 90.46235 | 26873 ft | 462 kts | 163° |
| 2026-05-04 21:07 | 17.59949 | 90.47370 | 26872 ft | 462 kts | 162° |
| 2026-05-04 21:07 | 17.56922 | 90.48505 | 26875 ft | 462 kts | 162° |
| 2026-05-04 21:07 | 17.53894 | 90.49642 | 26875 ft | 462 kts | 162° |
| 2026-05-04 21:07 | 17.50906 | 90.50763 | 26874 ft | 462 kts | 162° |
| 2026-05-04 21:08 | 17.47878 | 90.51896 | 26873 ft | 462 kts | 163° |
| 2026-05-04 21:08 | 17.44813 | 90.53038 | 26872 ft | 462 kts | 163° |
| 2026-05-04 21:08 | 17.41782 | 90.54166 | 26874 ft | 462 kts | 163° |
| 2026-05-04 21:08 | 17.38786 | 90.55290 | 26873 ft | 463 kts | 162° |
| 2026-05-04 21:09 | 17.35765 | 90.56454 | 26875 ft | 463 kts | 162° |
| 2026-05-04 21:09 | 17.32749 | 90.57635 | 26873 ft | 463 kts | 162° |
| 2026-05-04 21:09 | 17.29734 | 90.58820 | 26870 ft | 463 kts | 162° |
| 2026-05-04 21:09 | 17.26717 | 90.60004 | 26874 ft | 463 kts | 162° |
| 2026-05-04 21:10 | 17.23701 | 90.61187 | 26873 ft | 463 kts | 162° |
| 2026-05-04 21:10 | 17.20682 | 90.62366 | 26875 ft | 463 kts | 162° |
| 2026-05-04 21:10 | 17.17662 | 90.63542 | 26871 ft | 463 kts | 162° |
| 2026-05-04 21:10 | 17.14641 | 90.64715 | 26870 ft | 463 kts | 162° |
| 2026-05-04 21:11 | 17.11619 | 90.65882 | 26869 ft | 463 kts | 162° |
| 2026-05-04 21:11 | 17.08596 | 90.67048 | 26871 ft | 463 kts | 162° |
| 2026-05-04 21:11 | 17.05573 | 90.68216 | 26870 ft | 463 kts | 162° |
| 2026-05-04 21:11 | 17.02551 | 90.69386 | 26872 ft | 463 kts | 162° |
| 2026-05-04 21:12 | 16.99529 | 90.70557 | 26871 ft | 463 kts | 162° |
| 2026-05-04 21:12 | 16.96506 | 90.71729 | 26870 ft | 463 kts | 162° |
| 2026-05-04 21:12 | 16.93484 | 90.72902 | 26869 ft | 463 kts | 162° |
| 2026-05-04 21:12 | 16.90461 | 90.74074 | 26869 ft | 463 kts | 162° |
| 2026-05-04 21:13 | 16.87441 | 90.75243 | 26870 ft | 463 kts | 162° |
| 2026-05-04 21:13 | 16.84417 | 90.76413 | 26868 ft | 463 kts | 162° |
| 2026-05-04 21:13 | 16.81393 | 90.77579 | 26870 ft | 463 kts | 162° |
| 2026-05-04 21:13 | 16.78366 | 90.78743 | 26869 ft | 464 kts | 162° |
| 2026-05-04 21:14 | 16.75341 | 90.79908 | 26871 ft | 463 kts | 162° |
| 2026-05-04 21:14 | 16.72317 | 90.81077 | 26870 ft | 463 kts | 162° |
| 2026-05-04 21:14 | 16.69293 | 90.82246 | 26870 ft | 463 kts | 162° |
| 2026-05-04 21:14 | 16.66270 | 90.83416 | 26871 ft | 463 kts | 162° |
| 2026-05-04 21:15 | 16.63254 | 90.84582 | 26870 ft | 463 kts | 162° |
| 2026-05-04 21:15 | 16.60225 | 90.85756 | 26869 ft | 463 kts | 162° |
| 2026-05-04 21:15 | 16.57203 | 90.86926 | 26871 ft | 463 kts | 162° |
| 2026-05-04 21:15 | 16.54188 | 90.88090 | 26871 ft | 463 kts | 162° |
| 2026-05-04 21:16 | 16.51165 | 90.89252 | 26870 ft | 463 kts | 162° |
| 2026-05-04 21:16 | 16.48133 | 90.90412 | 26868 ft | 463 kts | 162° |
| 2026-05-04 21:16 | 16.45109 | 90.91571 | 26866 ft | 463 kts | 162° |
| 2026-05-04 21:16 | 16.42086 | 90.92732 | 26867 ft | 463 kts | 162° |
| 2026-05-04 21:17 | 16.39068 | 90.93895 | 26869 ft | 463 kts | 162° |
| 2026-05-04 21:17 | 16.36046 | 90.95061 | 26867 ft | 463 kts | 162° |
| 2026-05-04 21:17 | 16.33025 | 90.96226 | 26869 ft | 463 kts | 162° |
| 2026-05-04 21:17 | 16.30004 | 90.97392 | 26867 ft | 463 kts | 162° |
| 2026-05-04 21:18 | 16.26983 | 90.98556 | 26864 ft | 463 kts | 162° |
| 2026-05-04 21:18 | 16.23964 | 90.99715 | 26864 ft | 463 kts | 162° |
| 2026-05-04 21:18 | 16.20943 | 91.00873 | 26867 ft | 463 kts | 162° |
| 2026-05-04 21:18 | 16.17921 | 91.02031 | 26866 ft | 463 kts | 162° |
| 2026-05-04 21:19 | 16.14901 | 91.03189 | 26867 ft | 463 kts | 162° |
| 2026-05-04 21:19 | 16.11922 | 91.04334 | 26863 ft | 463 kts | 161° |
| 2026-05-04 21:19 | 16.08903 | 91.05496 | 26866 ft | 463 kts | 161° |
| 2026-05-04 21:19 | 16.05884 | 91.06656 | 26866 ft | 462 kts | 162° |
| 2026-05-04 21:20 | 16.02824 | 91.07825 | 26864 ft | 462 kts | 162° |
| 2026-05-04 21:20 | 15.99803 | 91.08979 | 26865 ft | 463 kts | 162° |
| 2026-05-04 21:20 | 15.96822 | 91.10119 | 26865 ft | 463 kts | 162° |
| 2026-05-04 21:20 | 15.93761 | 91.11290 | 26863 ft | 463 kts | 162° |
| 2026-05-04 21:21 | 15.90744 | 91.12442 | 26866 ft | 462 kts | 162° |
| 2026-05-04 21:21 | 15.87757 | 91.13585 | 26866 ft | 462 kts | 161° |
| 2026-05-04 21:21 | 15.84738 | 91.14742 | 26866 ft | 462 kts | 161° |
| 2026-05-04 21:21 | 15.81720 | 91.15901 | 26866 ft | 462 kts | 161° |
| 2026-05-04 21:22 | 15.78710 | 91.17056 | 26867 ft | 462 kts | 161° |
| 2026-05-04 21:22 | 15.75692 | 91.18210 | 26865 ft | 462 kts | 162° |
| 2026-05-04 21:22 | 15.72667 | 91.19362 | 26865 ft | 462 kts | 162° |
| 2026-05-04 21:22 | 15.69649 | 91.20512 | 26865 ft | 462 kts | 162° |
| 2026-05-04 21:23 | 15.66631 | 91.21660 | 26865 ft | 462 kts | 161° |
| 2026-05-04 21:23 | 15.63614 | 91.22810 | 26864 ft | 462 kts | 161° |
| 2026-05-04 21:23 | 15.60598 | 91.23963 | 26866 ft | 462 kts | 161° |
| 2026-05-04 21:23 | 15.57582 | 91.25114 | 26865 ft | 462 kts | 161° |
| 2026-05-04 21:24 | 15.54573 | 91.26262 | 26865 ft | 462 kts | 161° |
| 2026-05-04 21:24 | 15.51558 | 91.27414 | 26865 ft | 462 kts | 161° |
| 2026-05-04 21:24 | 15.48536 | 91.28567 | 26866 ft | 462 kts | 161° |
| 2026-05-04 21:24 | 15.45528 | 91.29713 | 26866 ft | 462 kts | 161° |
| 2026-05-04 21:25 | 15.42513 | 91.30862 | 26866 ft | 462 kts | 161° |
| 2026-05-04 21:25 | 15.39499 | 91.32011 | 26866 ft | 462 kts | 161° |
| 2026-05-04 21:25 | 15.36477 | 91.33161 | 26865 ft | 461 kts | 161° |
| 2026-05-04 21:25 | 15.33463 | 91.34307 | 26864 ft | 461 kts | 161° |
| 2026-05-04 21:26 | 15.30448 | 91.35449 | 26865 ft | 461 kts | 161° |
| 2026-05-04 21:26 | 15.27436 | 91.36591 | 26864 ft | 461 kts | 161° |
| 2026-05-04 21:26 | 15.24424 | 91.37741 | 26865 ft | 461 kts | 161° |
| 2026-05-04 21:26 | 15.21412 | 91.38891 | 26866 ft | 461 kts | 161° |
| 2026-05-04 21:27 | 15.18399 | 91.40040 | 26866 ft | 461 kts | 161° |
| 2026-05-04 21:27 | 15.15384 | 91.41182 | 26867 ft | 461 kts | 161° |
| 2026-05-04 21:27 | 15.12362 | 91.42325 | 26865 ft | 461 kts | 161° |
| 2026-05-04 21:27 | 15.09387 | 91.43448 | 26865 ft | 461 kts | 161° |
| 2026-05-04 21:28 | 15.06371 | 91.44585 | 26866 ft | 461 kts | 161° |
| 2026-05-04 21:28 | 15.03357 | 91.45726 | 26866 ft | 461 kts | 161° |
| 2026-05-04 21:28 | 15.00345 | 91.46872 | 26865 ft | 461 kts | 161° |
| 2026-05-04 21:28 | 14.97335 | 91.48023 | 26865 ft | 461 kts | 161° |
| 2026-05-04 21:29 | 14.94326 | 91.49175 | 26864 ft | 461 kts | 161° |
| 2026-05-04 21:29 | 14.91316 | 91.50324 | 26864 ft | 461 kts | 161° |
| 2026-05-04 21:29 | 14.88305 | 91.51468 | 26867 ft | 461 kts | 161° |
| 2026-05-04 21:29 | 14.85292 | 91.52603 | 26866 ft | 461 kts | 161° |
| 2026-05-04 21:30 | 14.82270 | 91.53737 | 26866 ft | 461 kts | 161° |
| 2026-05-04 21:30 | 14.79257 | 91.54872 | 26865 ft | 461 kts | 161° |
| 2026-05-04 21:30 | 14.76252 | 91.56009 | 26862 ft | 461 kts | 161° |
| 2026-05-04 21:30 | 14.73240 | 91.57148 | 26863 ft | 461 kts | 161° |
| 2026-05-04 21:31 | 14.67219 | 91.59424 | 26863 ft | 461 kts | 161° |
| 2026-05-04 21:31 | 14.64208 | 91.60562 | 26864 ft | 461 kts | 161° |
| 2026-05-04 21:31 | 14.61198 | 91.61700 | 26860 ft | 461 kts | 161° |
| 2026-05-04 21:32 | 14.58188 | 91.62837 | 26860 ft | 461 kts | 161° |
| 2026-05-04 21:32 | 14.55178 | 91.63972 | 26860 ft | 460 kts | 161° |
| 2026-05-04 21:32 | 14.52163 | 91.65110 | 26860 ft | 460 kts | 161° |
| 2026-05-04 21:32 | 14.49160 | 91.66242 | 26861 ft | 460 kts | 161° |
| 2026-05-04 21:33 | 14.46151 | 91.67376 | 26859 ft | 460 kts | 161° |
| 2026-05-04 21:33 | 14.43144 | 91.68512 | 26860 ft | 460 kts | 161° |
| 2026-05-04 21:33 | 14.40137 | 91.69649 | 26860 ft | 460 kts | 161° |
| 2026-05-04 21:33 | 14.37128 | 91.70783 | 26861 ft | 460 kts | 161° |
| 2026-05-04 21:34 | 14.34118 | 91.71915 | 26860 ft | 460 kts | 161° |
| 2026-05-04 21:34 | 14.31103 | 91.73050 | 26859 ft | 460 kts | 161° |
| 2026-05-04 21:34 | 14.28096 | 91.74185 | 26861 ft | 460 kts | 161° |
| 2026-05-04 21:34 | 14.25090 | 91.75320 | 26860 ft | 460 kts | 161° |
| 2026-05-04 21:35 | 14.22115 | 91.76442 | 26856 ft | 460 kts | 161° |
| 2026-05-04 21:35 | 14.19108 | 91.77573 | 26860 ft | 460 kts | 161° |
| 2026-05-04 21:35 | 14.16109 | 91.78699 | 26857 ft | 460 kts | 161° |
| 2026-05-04 21:35 | 14.13102 | 91.79827 | 26858 ft | 460 kts | 161° |
| 2026-05-04 21:36 | 14.10095 | 91.80955 | 26861 ft | 460 kts | 161° |
| 2026-05-04 21:36 | 14.07090 | 91.82086 | 26859 ft | 460 kts | 161° |
| 2026-05-04 21:36 | 14.04085 | 91.83215 | 26859 ft | 460 kts | 161° |
| 2026-05-04 21:36 | 14.01084 | 91.84354 | 26861 ft | 460 kts | 161° |
| 2026-05-04 21:37 | 13.98088 | 91.85507 | 26858 ft | 460 kts | 160° |
| 2026-05-04 21:37 | 13.95096 | 91.86668 | 26858 ft | 460 kts | 160° |
| 2026-05-04 21:37 | 13.92107 | 91.87834 | 26861 ft | 459 kts | 160° |
| 2026-05-04 21:37 | 13.89118 | 91.89000 | 26859 ft | 459 kts | 160° |
| 2026-05-04 21:38 | 13.86130 | 91.90161 | 26860 ft | 459 kts | 160° |
| 2026-05-04 21:38 | 13.83140 | 91.91317 | 26863 ft | 459 kts | 160° |
| 2026-05-04 21:38 | 13.80150 | 91.92471 | 26861 ft | 459 kts | 160° |
| 2026-05-04 21:38 | 13.77154 | 91.93625 | 26859 ft | 459 kts | 160° |
| 2026-05-04 21:39 | 13.74171 | 91.94772 | 26860 ft | 459 kts | 160° |
| 2026-05-04 21:39 | 13.71177 | 91.95926 | 26858 ft | 459 kts | 160° |
| 2026-05-04 21:39 | 13.68194 | 91.97079 | 26858 ft | 458 kts | 160° |
| 2026-05-04 21:39 | 13.65207 | 91.98232 | 26859 ft | 458 kts | 160° |
| 2026-05-04 21:40 | 13.63232 | 91.98991 | 26861 ft | 459 kts | 160° |
| 2026-05-04 21:40 | 13.60244 | 92.00141 | 26860 ft | 458 kts | 160° |
| 2026-05-04 21:40 | 13.57255 | 92.01287 | 26859 ft | 458 kts | 160° |
| 2026-05-04 21:40 | 13.53293 | 92.02807 | 26859 ft | 458 kts | 160° |
| 2026-05-04 21:41 | 13.51279 | 92.03581 | 26858 ft | 458 kts | 160° |
| 2026-05-04 21:41 | 13.48293 | 92.04729 | 26860 ft | 458 kts | 160° |
| 2026-05-04 21:41 | 13.45308 | 92.05880 | 26859 ft | 458 kts | 160° |
| 2026-05-04 21:41 | 13.42324 | 92.07031 | 26859 ft | 458 kts | 160° |
| 2026-05-04 21:42 | 13.39331 | 92.08178 | 26857 ft | 458 kts | 160° |
| 2026-05-04 21:42 | 13.36346 | 92.09323 | 26858 ft | 458 kts | 160° |
| 2026-05-04 21:42 | 13.33369 | 92.10467 | 26856 ft | 458 kts | 160° |
| 2026-05-04 21:42 | 13.30386 | 92.11612 | 26856 ft | 458 kts | 160° |
| 2026-05-04 21:43 | 13.27402 | 92.12753 | 26857 ft | 458 kts | 160° |
| 2026-05-04 21:43 | 13.24418 | 92.13893 | 26858 ft | 458 kts | 160° |
| 2026-05-04 21:43 | 13.21431 | 92.15038 | 26858 ft | 458 kts | 160° |
| 2026-05-04 21:43 | 13.18448 | 92.16184 | 26858 ft | 458 kts | 160° |
| 2026-05-04 21:44 | 13.15466 | 92.17333 | 26858 ft | 458 kts | 160° |
| 2026-05-04 21:44 | 13.12484 | 92.18483 | 26858 ft | 458 kts | 160° |
| 2026-05-04 21:44 | 13.09502 | 92.19632 | 26855 ft | 458 kts | 160° |
| 2026-05-04 21:44 | 13.06517 | 92.20778 | 26856 ft | 458 kts | 160° |
| 2026-05-04 21:45 | 13.03532 | 92.21922 | 26856 ft | 458 kts | 160° |
| 2026-05-04 21:45 | 13.00551 | 92.23065 | 26856 ft | 458 kts | 160° |
| 2026-05-04 21:45 | 12.97599 | 92.24192 | 26859 ft | 458 kts | 160° |
| 2026-05-04 21:45 | 12.94612 | 92.25328 | 26860 ft | 458 kts | 160° |
| 2026-05-04 21:46 | 12.91630 | 92.26464 | 26858 ft | 458 kts | 160° |
| 2026-05-04 21:46 | 12.88639 | 92.27604 | 26858 ft | 458 kts | 160° |
| 2026-05-04 21:46 | 12.85653 | 92.28747 | 26858 ft | 458 kts | 160° |
| 2026-05-04 21:46 | 12.82677 | 92.29887 | 26856 ft | 458 kts | 160° |
| 2026-05-04 21:47 | 12.79695 | 92.31029 | 26857 ft | 458 kts | 160° |
| 2026-05-04 21:47 | 12.76713 | 92.32172 | 26857 ft | 458 kts | 160° |
| 2026-05-04 21:47 | 12.73731 | 92.33315 | 26855 ft | 458 kts | 160° |
| 2026-05-04 21:47 | 12.70745 | 92.34457 | 26857 ft | 458 kts | 160° |
| 2026-05-04 21:48 | 12.67762 | 92.35596 | 26857 ft | 457 kts | 160° |
| 2026-05-04 21:48 | 12.64779 | 92.36735 | 26857 ft | 457 kts | 160° |
| 2026-05-04 21:48 | 12.61790 | 92.37877 | 26857 ft | 457 kts | 160° |
| 2026-05-04 21:48 | 12.58815 | 92.39016 | 26859 ft | 457 kts | 160° |
| 2026-05-04 21:49 | 12.55826 | 92.40159 | 26857 ft | 457 kts | 160° |
| 2026-05-04 21:49 | 12.52881 | 92.41280 | 26745 ft | 458 kts | 160° |
| 2026-05-04 21:49 | 12.49896 | 92.42415 | 26509 ft | 457 kts | 160° |
| 2026-05-04 21:49 | 12.46928 | 92.43545 | 26075 ft | 453 kts | 160° |
| 2026-05-04 21:50 | 12.43982 | 92.44665 | 25390 ft | 451 kts | 160° |
| 2026-05-04 21:50 | 12.41045 | 92.45782 | 24727 ft | 449 kts | 160° |
| 2026-05-04 21:50 | 12.38122 | 92.46897 | 24070 ft | 447 kts | 160° |
| 2026-05-04 21:50 | 12.35208 | 92.48012 | 23415 ft | 446 kts | 160° |
| 2026-05-04 21:51 | 12.32316 | 92.49118 | 22696 ft | 443 kts | 160° |
| 2026-05-04 21:51 | 12.29441 | 92.50214 | 22104 ft | 438 kts | 160° |
| 2026-05-04 21:51 | 12.26598 | 92.51294 | 21522 ft | 433 kts | 160° |
| 2026-05-04 21:51 | 12.23797 | 92.52356 | 20983 ft | 428 kts | 160° |
| 2026-05-04 21:52 | 12.21025 | 92.53410 | 20450 ft | 423 kts | 160° |
| 2026-05-04 21:52 | 12.18284 | 92.54453 | 19944 ft | 417 kts | 159° |
| 2026-05-04 21:52 | 12.15593 | 92.55481 | 19608 ft | 408 kts | 159° |
| 2026-05-04 21:52 | 12.12962 | 92.56484 | 19109 ft | 403 kts | 159° |
| 2026-05-04 21:53 | 12.10308 | 92.57493 | 18400 ft | 406 kts | 159° |
| 2026-05-04 21:53 | 12.07660 | 92.58499 | 17678 ft | 407 kts | 159° |
| 2026-05-04 21:53 | 12.04995 | 92.59511 | 16869 ft | 409 kts | 159° |
| 2026-05-04 21:53 | 12.02335 | 92.60520 | 16223 ft | 407 kts | 159° |
| 2026-05-04 21:54 | 11.99682 | 92.61524 | 15648 ft | 404 kts | 159° |
| 2026-05-04 21:54 | 11.97057 | 92.62520 | 15064 ft | 401 kts | 159° |
| 2026-05-04 21:54 | 11.94451 | 92.63500 | 14510 ft | 398 kts | 160° |
| 2026-05-04 21:54 | 11.91739 | 92.63968 | 13981 ft | 397 kts | 180° |
| 2026-05-04 21:55 | 11.89049 | 92.63413 | 13424 ft | 397 kts | 202° |
| 2026-05-04 21:55 | 11.86758 | 92.61871 | 12820 ft | 396 kts | 224° |
| 2026-05-04 21:55 | 11.85041 | 92.59683 | 12210 ft | 394 kts | 232° |
| 2026-05-04 21:55 | 11.83321 | 92.57519 | 11632 ft | 391 kts | 227° |
| 2026-05-04 21:56 | 11.81459 | 92.55583 | 11227 ft | 380 kts | 221° |
| 2026-05-04 21:56 | 11.79480 | 92.53928 | 10729 ft | 360 kts | 214° |
| 2026-05-04 21:56 | 11.77414 | 92.52570 | 10213 ft | 343 kts | 208° |
| 2026-05-04 21:56 | 11.75347 | 92.51498 | 10098 ft | 316 kts | 202° |
| 2026-05-04 21:57 | 11.73378 | 92.50678 | 9843 ft | 298 kts | 198° |
| 2026-05-04 21:57 | 11.71425 | 92.50047 | 9310 ft | 292 kts | 193° |
| 2026-05-04 21:57 | 11.69490 | 92.49602 | 9029 ft | 276 kts | 188° |
| 2026-05-04 21:57 | 11.67657 | 92.49324 | 8831 ft | 259 kts | 185° |
| 2026-05-04 21:58 | 11.65908 | 92.49183 | 8577 ft | 248 kts | 180° |
| 2026-05-04 21:58 | 11.64184 | 92.49169 | 8072 ft | 248 kts | 176° |
| 2026-05-04 21:58 | 11.62458 | 92.49284 | 7492 ft | 249 kts | 172° |
| 2026-05-04 21:58 | 11.60735 | 92.49526 | 6930 ft | 250 kts | 168° |
| 2026-05-04 21:59 | 11.59027 | 92.49889 | 6369 ft | 251 kts | 165° |
| 2026-05-04 21:59 | 11.57380 | 92.50357 | 5877 ft | 247 kts | 161° |
| 2026-05-04 21:59 | 11.55773 | 92.50935 | 5403 ft | 243 kts | 157° |
| 2026-05-04 21:59 | 11.54230 | 92.51616 | 4922 ft | 240 kts | 153° |
| 2026-05-04 22:00 | 11.52756 | 92.52391 | 4441 ft | 237 kts | 149° |
| 2026-05-04 22:00 | 11.51370 | 92.53243 | 4137 ft | 230 kts | 145° |
| 2026-05-04 22:00 | 11.50058 | 92.54171 | 3850 ft | 229 kts | 142° |
| 2026-05-04 22:00 | 11.48823 | 92.55167 | 3661 ft | 224 kts | 138° |
| 2026-05-04 22:01 | 11.47687 | 92.56220 | 3457 ft | 218 kts | 131° |
| 2026-05-04 22:01 | 11.47107 | 92.57578 | 3310 ft | 209 kts | 89° |
| 2026-05-04 22:01 | 11.47487 | 92.58967 | 3193 ft | 202 kts | 65° |
| 2026-05-04 22:01 | 11.48069 | 92.60264 | 3076 ft | 200 kts | 66° |
| 2026-05-04 22:02 | 11.48811 | 92.61455 | 2949 ft | 200 kts | 47° |
| 2026-05-04 22:02 | 11.49896 | 92.62342 | 2828 ft | 200 kts | 37° |
| 2026-05-04 22:02 | 11.51024 | 92.63172 | 2704 ft | 200 kts | 38° |
| 2026-05-04 22:02 | 11.52124 | 92.63990 | 2634 ft | 190 kts | 37° |
| 2026-05-04 22:03 | 11.53181 | 92.64782 | 2389 ft | 188 kts | 37° |
| 2026-05-04 22:03 | 11.54228 | 92.65566 | 2146 ft | 185 kts | 38° |
| 2026-05-04 22:03 | 11.55265 | 92.66342 | 1912 ft | 184 kts | 38° |
| 2026-05-04 22:03 | 11.56282 | 92.67102 | 1678 ft | 177 kts | 38° |
| 2026-05-04 22:04 | 11.57241 | 92.67818 | 1461 ft | 164 kts | 38° |
| 2026-05-04 22:04 | 11.58125 | 92.68479 | 1276 ft | 151 kts | 38° |
| 2026-05-04 22:04 | 11.58951 | 92.69096 | 1058 ft | 145 kts | 39° |
| 2026-05-04 22:04 | 11.59762 | 92.69702 | 892 ft | 144 kts | 38° |
| 2026-05-04 22:05 | 11.60569 | 92.70298 | 724 ft | 143 kts | 37° |
| 2026-05-04 22:05 | 11.61368 | 92.70904 | 531 ft | 143 kts | 38° |
| 2026-05-04 22:05 | 11.62169 | 92.71500 | 327 ft | 142 kts | 38° |
| 2026-05-04 22:05 | 11.62963 | 92.72092 | 135 ft | 140 kts | 38° |
| 2026-05-04 22:06 | 11.63713 | 92.72659 | 44 ft | 117 kts | 36° |
| 2026-05-04 22:06 | 11.64231 | 92.73048 | 27 ft | 68 kts | 36° |
| 2026-05-04 22:06 | 11.64486 | 92.73236 | 27 ft | 33 kts | 36° |
| 2026-05-04 22:06 | 11.64660 | 92.73370 | 31 ft | 30 kts | 36° |
| 2026-05-04 22:07 | 11.64819 | 92.73486 | 43 ft | 26 kts | 36° |
| 2026-05-04 22:07 | 11.64899 | 92.73530 | 46 ft | 8 kts | 344° |
| 2026-05-04 22:07 | 11.64931 | 92.73491 | 45 ft | 6 kts | 305° |
| 2026-05-04 22:07 | 11.64956 | 92.73455 | 44 ft | 7 kts | 308° |
| 2026-05-04 22:08 | 11.65014 | 92.73455 | 45 ft | 11 kts | 38° |
| 2026-05-04 22:08 | 11.65081 | 92.73511 | 49 ft | 13 kts | 38° |
| 2026-05-04 22:08 | 11.65133 | 92.73549 | 53 ft | 7 kts | 29° |
| 2026-05-04 22:08 | 11.65178 | 92.73518 | 52 ft | 9 kts | 304° |
| 2026-05-04 22:09 | 11.65193 | 92.73496 | 52 ft | 0 kts | 307° |